createdAt,value
2023-04-17T00:02:39.806Z,33.67
2023-04-17T00:05:46.363Z,34.03
2023-04-17T00:08:49.781Z,36.55
2023-04-17T00:11:52.963Z,37.08
2023-04-17T00:14:56.173Z,36.80
2023-04-17T00:18:00.774Z,36.38
2023-04-17T00:21:04.075Z,38.13
2023-04-17T00:24:07.775Z,36.08
2023-04-17T00:27:11.072Z,35.38
2023-04-17T00:30:14.685Z,37.78
2023-04-17T00:33:19.333Z,34.83
2023-04-17T00:36:22.619Z,33.72
2023-04-17T00:39:26.150Z,35.38
2023-04-17T00:42:29.428Z,32.90
2023-04-17T00:45:32.850Z,36.38
2023-04-17T00:48:40.942Z,35.60
2023-04-17T00:51:44.169Z,32.67
2023-04-17T00:54:47.568Z,34.63
2023-04-17T00:57:51.261Z,38.58
2023-04-17T01:00:54.671Z,36.92
2023-04-17T01:04:01.863Z,38.13
2023-04-17T01:07:05.375Z,40.28
2023-04-17T01:10:09.536Z,40.78
2023-04-17T01:13:13.071Z,39.90
2023-04-17T01:16:18.400Z,41.50
2023-04-17T01:19:23.989Z,40.45
2023-04-17T01:22:27.234Z,43.58
2023-04-17T01:25:36.230Z,43.30
2023-04-17T01:28:39.625Z,39.33
2023-04-17T01:31:42.855Z,38.95
2023-04-17T01:34:46.216Z,39.78
2023-04-17T01:37:49.443Z,44.47
2023-04-17T01:40:54.636Z,43.85
2023-04-17T01:43:57.810Z,43.45
2023-04-17T01:47:01.036Z,42.55
2023-04-17T01:50:04.717Z,42.70
2023-04-17T01:53:08.030Z,39.47
2023-04-17T01:56:13.742Z,37.72
2023-04-17T01:59:16.992Z,43.85
2023-04-17T02:02:20.544Z,46.97
2023-04-17T02:05:24.098Z,44.40
2023-04-17T02:08:27.544Z,40.50
2023-04-17T02:11:32.276Z,43.17
2023-04-17T02:14:35.446Z,45.78
2023-04-17T02:17:38.708Z,43.97
2023-04-17T02:20:42.310Z,41.88
2023-04-17T02:23:45.859Z,44.53
2023-04-17T02:26:52.702Z,45.55
2023-04-17T02:29:55.983Z,45.35
2023-04-17T02:32:59.701Z,44.60
2023-04-17T02:36:02.942Z,42.60
2023-04-17T02:42:18.084Z,50.95
2023-04-17T02:45:21.543Z,51.78
2023-04-17T02:48:25.291Z,51.15
2023-04-17T02:51:29.183Z,50.05
2023-04-17T02:54:32.421Z,52.20
2023-04-17T02:57:37.484Z,54.15
2023-04-17T03:00:41.226Z,58.90
2023-04-17T03:03:50.092Z,61.53
2023-04-17T03:06:53.655Z,55.08
2023-04-17T03:09:57.538Z,56.80
2023-04-17T03:13:03.602Z,59.33
2023-04-17T03:16:09.302Z,61.45
2023-04-17T03:19:14.322Z,62.00
2023-04-17T03:22:17.522Z,54.40
2023-04-17T03:25:21.298Z,56.53
2023-04-17T03:28:30.322Z,52.25
2023-04-17T03:31:33.558Z,55.35
2023-04-17T03:34:37.032Z,59.20
2023-04-17T03:37:40.244Z,51.60
2023-04-17T03:40:43.678Z,53.88
2023-04-17T03:43:49.015Z,50.75
2023-04-17T03:46:52.246Z,50.75
2023-04-17T03:49:55.903Z,59.55
2023-04-17T03:53:00.219Z,55.38
2023-04-17T03:56:05.300Z,60.28
2023-04-17T03:59:14.667Z,50.33
2023-04-17T04:02:20.079Z,56.78
2023-04-17T04:05:25.762Z,58.95
2023-04-17T04:08:29.975Z,56.90
2023-04-17T04:11:33.895Z,54.67
2023-04-17T04:14:41.260Z,53.22
2023-04-17T04:17:45.349Z,59.95
2023-04-17T04:20:48.653Z,59.45
2023-04-17T04:27:05.478Z,58.17
2023-04-17T04:30:14.278Z,55.15
2023-04-17T04:33:21.145Z,57.10
2023-04-17T04:36:25.130Z,58.85
2023-04-17T04:39:40.069Z,65.13
2023-04-17T04:42:49.426Z,61.40
2023-04-17T04:45:59.061Z,57.92
2023-04-17T04:49:05.691Z,58.38
2023-04-17T04:52:08.981Z,58.67
2023-04-17T04:55:12.605Z,63.40
2023-04-17T04:58:22.344Z,47.87
2023-04-17T05:01:30.912Z,62.90
2023-04-17T05:04:34.526Z,65.55
2023-04-17T05:07:38.494Z,71.22
2023-04-17T05:10:46.070Z,68.65
2023-04-17T05:13:50.488Z,86.25
2023-04-17T05:17:01.596Z,78.55
2023-04-17T05:20:08.896Z,69.15
2023-04-17T05:23:21.507Z,76.35
2023-04-17T05:26:27.737Z,70.45
2023-04-17T05:29:32.992Z,83.47
2023-04-17T05:32:37.854Z,85.50
2023-04-17T05:36:04.357Z,83.90
2023-04-17T05:39:12.021Z,84.40
2023-04-17T05:42:17.874Z,79.22
2023-04-17T05:45:24.209Z,74.78
2023-04-17T05:48:30.473Z,75.10
2023-04-17T05:51:33.713Z,65.03
2023-04-17T05:54:37.279Z,59.97
2023-04-17T05:57:40.757Z,63.58
2023-04-17T06:00:44.107Z,59.78
2023-04-17T06:03:51.693Z,59.00
2023-04-17T06:06:59.743Z,54.15
2023-04-17T06:10:03.723Z,50.95
2023-04-17T06:13:07.574Z,51.72
2023-04-17T06:16:10.775Z,61.30
2023-04-17T06:19:15.533Z,57.50
2023-04-17T06:22:18.937Z,78.38
2023-04-17T06:25:23.711Z,50.05
2023-04-17T06:28:27.452Z,57.85
2023-04-17T06:31:32.301Z,48.08
2023-04-17T06:34:46.117Z,46.92
2023-04-17T06:38:09.818Z,45.20
2023-04-17T06:41:14.314Z,37.92
2023-04-17T06:44:18.269Z,32.70
2023-04-17T06:47:23.347Z,35.75
2023-04-17T06:50:32.330Z,31.40
2023-04-17T06:53:38.834Z,27.38
2023-04-17T06:56:42.030Z,24.95
2023-04-17T06:59:45.229Z,29.60
2023-04-17T07:02:48.644Z,21.73
2023-04-17T07:05:53.332Z,23.52
2023-04-17T07:08:56.539Z,23.85
2023-04-17T07:11:59.817Z,28.02
2023-04-17T07:15:03.164Z,24.60
2023-04-17T07:18:06.804Z,27.27
2023-04-17T07:21:11.613Z,25.95
2023-04-17T07:24:14.812Z,20.42
2023-04-17T07:27:18.145Z,21.00
2023-04-17T07:30:21.359Z,20.40
2023-04-17T07:33:24.822Z,18.73
2023-04-17T07:36:29.951Z,14.30
2023-04-17T07:39:33.145Z,16.65
2023-04-17T07:42:36.530Z,16.00
2023-04-17T07:45:41.667Z,17.50
2023-04-17T07:48:45.334Z,19.35
2023-04-17T07:51:49.936Z,18.27
2023-04-17T07:54:53.121Z,19.25
2023-04-17T07:57:56.710Z,18.17
2023-04-17T08:00:59.892Z,13.57
2023-04-17T08:04:03.502Z,22.70
2023-04-17T08:07:10.654Z,17.55
2023-04-17T08:10:14.008Z,14.75
2023-04-17T08:13:17.368Z,17.27
2023-04-17T08:16:20.618Z,18.90
2023-04-17T08:19:24.041Z,23.27
2023-04-17T08:22:29.069Z,19.42
2023-04-17T08:25:32.620Z,19.52
2023-04-17T08:28:35.925Z,17.77
2023-04-17T08:31:40.349Z,19.67
2023-04-17T08:34:45.404Z,20.02
2023-04-17T08:37:50.162Z,27.25
2023-04-17T08:40:55.152Z,22.17
2023-04-17T08:44:00.073Z,15.32
2023-04-17T08:47:04.572Z,13.95
2023-04-17T08:50:10.028Z,16.42
2023-04-17T08:53:14.705Z,16.05
2023-04-17T08:56:17.932Z,20.15
2023-04-17T08:59:22.675Z,16.83
2023-04-17T09:02:27.780Z,15.63
2023-04-17T09:05:33.613Z,20.42
2023-04-17T09:08:38.832Z,19.70
2023-04-17T09:11:42.029Z,16.40
2023-04-17T09:14:46.055Z,17.52
2023-04-17T09:17:49.299Z,24.08
2023-04-17T09:20:52.974Z,15.07
2023-04-17T09:23:59.409Z,17.58
2023-04-17T09:27:20.649Z,16.27
2023-04-17T09:30:27.038Z,18.00
2023-04-17T09:33:30.581Z,21.63
2023-04-17T09:36:35.310Z,19.80
2023-04-17T09:39:40.763Z,19.10
2023-04-17T09:42:56.188Z,26.02
2023-04-17T09:45:59.625Z,15.73
2023-04-17T09:49:06.902Z,17.88
2023-04-17T09:52:10.576Z,16.10
2023-04-17T09:55:16.510Z,20.80
2023-04-17T09:58:20.145Z,20.83
2023-04-17T10:01:23.936Z,19.08
2023-04-17T10:04:27.456Z,16.90
2023-04-17T10:07:31.446Z,19.08
2023-04-17T10:10:36.685Z,17.50
2023-04-17T10:13:42.830Z,18.88
2023-04-17T10:16:48.060Z,18.05
2023-04-17T10:19:51.455Z,23.83
2023-04-17T10:22:56.269Z,16.67
2023-04-17T10:26:45.762Z,18.63
2023-04-17T10:29:57.976Z,16.55
2023-04-17T10:33:21.645Z,23.52
2023-04-17T10:36:52.349Z,21.35
2023-04-17T10:40:00.627Z,20.60
2023-04-17T10:43:12.294Z,19.98
2023-04-17T10:46:17.006Z,21.25
2023-04-17T10:49:22.997Z,34.28
2023-04-17T10:52:44.750Z,33.78
2023-04-17T10:55:51.331Z,26.55
2023-04-17T10:58:59.532Z,39.40
2023-04-17T11:02:07.610Z,20.42
2023-04-17T11:05:12.133Z,21.00
2023-04-17T11:08:16.204Z,23.27
2023-04-17T11:11:27.004Z,22.02
2023-04-17T11:14:43.065Z,19.98
2023-04-17T11:17:51.037Z,23.40
2023-04-17T11:20:54.333Z,22.38
2023-04-17T11:23:57.503Z,22.27
2023-04-17T11:27:03.318Z,26.05
2023-04-17T11:30:07.856Z,22.27
2023-04-17T11:33:13.501Z,25.75
2023-04-17T11:36:16.802Z,21.33
2023-04-17T11:39:21.388Z,20.90
2023-04-17T11:42:27.875Z,22.00
2023-04-17T11:45:32.778Z,23.40
2023-04-17T11:48:37.691Z,25.55
2023-04-17T11:51:41.093Z,27.45
2023-04-17T11:54:44.657Z,26.50
2023-04-17T11:57:52.262Z,29.85
2023-04-17T12:01:06.454Z,28.58
2023-04-17T12:04:21.995Z,29.92
2023-04-17T12:07:25.777Z,26.17
2023-04-17T12:10:38.915Z,25.83
2023-04-17T12:13:42.250Z,29.35
2023-04-17T12:16:48.115Z,24.05
2023-04-17T12:19:52.884Z,25.10
2023-04-17T12:22:56.177Z,27.27
2023-04-17T12:25:59.528Z,26.70
2023-04-17T12:29:03.084Z,23.20
2023-04-17T12:32:06.599Z,22.83
2023-04-17T12:35:11.751Z,23.63
2023-04-17T12:38:15.200Z,24.60
2023-04-17T12:41:18.401Z,22.30
2023-04-17T12:44:21.575Z,24.52
2023-04-17T12:47:24.851Z,22.50
2023-04-17T12:50:29.594Z,26.10
2023-04-17T12:53:32.938Z,19.30
2023-04-17T12:56:36.326Z,23.08
2023-04-17T12:59:39.736Z,22.75
2023-04-17T13:02:43.063Z,23.00
2023-04-17T13:05:49.168Z,21.52
2023-04-17T13:08:52.395Z,20.77
2023-04-17T13:11:55.589Z,20.50
2023-04-17T13:14:59.143Z,18.73
2023-04-17T13:18:02.763Z,22.92
2023-04-17T13:21:08.191Z,26.83
2023-04-17T13:24:14.600Z,19.98
2023-04-17T13:27:17.985Z,28.80
2023-04-17T13:30:21.225Z,18.75
2023-04-17T13:33:24.484Z,19.85
2023-04-17T13:36:29.296Z,18.55
2023-04-17T13:39:32.533Z,17.73
2023-04-17T13:42:35.826Z,17.27
2023-04-17T13:45:39.091Z,21.02
2023-04-17T13:48:42.791Z,17.70
2023-04-17T13:51:47.584Z,19.50
2023-04-17T13:54:50.782Z,39.58
2023-04-17T13:57:54.242Z,22.13
2023-04-17T14:00:57.596Z,19.83
2023-04-17T14:04:01.700Z,20.00
2023-04-17T14:07:07.634Z,19.85
2023-04-17T14:10:11.642Z,21.77
2023-04-17T14:13:15.021Z,13.63
2023-04-17T14:16:19.472Z,14.73
2023-04-17T14:19:23.603Z,14.07
2023-04-17T14:22:28.221Z,17.25
2023-04-17T14:25:31.504Z,15.75
2023-04-17T14:28:35.455Z,21.08
2023-04-17T14:31:38.933Z,19.23
2023-04-17T14:34:42.601Z,19.20
2023-04-17T14:37:48.634Z,13.98
2023-04-17T14:40:52.639Z,17.10
2023-04-17T14:43:56.084Z,16.42
2023-04-17T14:46:59.565Z,17.55
2023-04-17T14:50:03.417Z,19.13
2023-04-17T14:53:08.035Z,23.35
2023-04-17T14:56:11.516Z,23.20
2023-04-17T14:59:15.013Z,20.10
2023-04-17T15:02:18.461Z,19.77
2023-04-17T15:05:22.631Z,27.13
2023-04-17T15:08:28.399Z,18.77
2023-04-17T15:11:44.338Z,14.60
2023-04-17T15:14:52.936Z,12.82
2023-04-17T15:17:56.531Z,12.77
2023-04-17T15:21:00.014Z,15.20
2023-04-17T15:24:27.010Z,12.70
2023-04-17T15:27:31.582Z,11.60
2023-04-17T15:34:02.892Z,16.48
2023-04-17T15:37:26.547Z,15.10
2023-04-17T15:41:20.379Z,16.92
2023-04-17T15:44:27.179Z,16.08
2023-04-17T15:48:10.843Z,17.23
2023-04-17T15:55:33.054Z,18.88
2023-04-17T16:02:28.338Z,16.88
2023-04-17T16:05:49.448Z,25.45
2023-04-17T16:08:58.671Z,15.32
2023-04-17T16:12:02.846Z,18.10
2023-04-17T16:15:08.681Z,18.95
2023-04-17T16:18:17.248Z,69.75
2023-04-17T16:21:20.526Z,22.00
2023-04-17T16:24:38.272Z,21.92
2023-04-17T16:27:49.554Z,20.63
2023-04-17T16:31:40.223Z,16.35
2023-04-17T16:37:52.094Z,18.33
2023-04-17T16:40:57.034Z,18.15
2023-04-17T16:47:40.695Z,17.58
2023-04-17T16:50:44.055Z,18.45
2023-04-17T16:53:47.406Z,21.30
2023-04-17T16:56:50.840Z,18.30
2023-04-17T16:59:54.139Z,19.42
2023-04-17T17:02:59.128Z,17.20
2023-04-17T17:06:04.708Z,16.88
2023-04-17T17:09:08.328Z,17.48
2023-04-17T17:12:12.047Z,17.20
2023-04-17T17:15:15.624Z,19.35
2023-04-17T17:18:20.290Z,17.20
2023-04-17T17:21:23.734Z,15.93
2023-04-17T17:24:28.819Z,19.38
2023-04-17T17:27:33.122Z,21.73
2023-04-17T17:30:37.832Z,17.90
2023-04-17T17:33:42.647Z,18.70
2023-04-17T17:36:45.984Z,20.23
2023-04-17T17:39:49.716Z,33.20
2023-04-17T17:42:53.052Z,43.50
2023-04-17T17:45:58.752Z,23.52
2023-04-17T17:49:03.719Z,23.05
2023-04-17T17:52:07.109Z,25.88
2023-04-17T17:55:14.770Z,24.70
2023-04-17T17:58:18.391Z,25.15
2023-04-17T18:01:23.817Z,25.80
2023-04-17T18:04:29.870Z,24.55
2023-04-17T18:07:34.073Z,24.13
2023-04-17T18:10:37.571Z,26.08
2023-04-17T18:13:43.609Z,25.52
2023-04-17T18:16:48.614Z,21.92
2023-04-17T18:19:53.482Z,21.25
2023-04-17T18:22:57.878Z,28.50
2023-04-17T18:26:03.296Z,33.17
2023-04-17T18:29:07.018Z,28.25
2023-04-17T18:32:11.358Z,25.35
2023-04-17T18:35:16.349Z,23.85
2023-04-17T18:38:19.897Z,28.33
2023-04-17T18:41:23.190Z,34.97
2023-04-17T18:44:26.619Z,25.45
2023-04-17T18:47:30.058Z,26.02
2023-04-17T18:50:34.745Z,31.40
2023-04-17T18:53:40.269Z,27.55
2023-04-17T18:56:47.126Z,39.78
2023-04-17T18:59:55.249Z,25.80
2023-04-17T19:03:00.013Z,26.17
2023-04-17T19:06:10.110Z,27.67
2023-04-17T19:09:14.360Z,26.93
2023-04-17T19:12:21.611Z,28.02
2023-04-17T19:15:26.101Z,27.27
2023-04-17T19:18:32.144Z,24.58
2023-04-17T19:21:38.654Z,30.27
2023-04-17T19:24:42.054Z,29.00
2023-04-17T19:27:46.170Z,32.63
2023-04-17T19:30:50.788Z,29.27
2023-04-17T19:33:56.113Z,30.10
2023-04-17T19:37:00.991Z,29.98
2023-04-17T19:40:14.283Z,99.47
2023-04-17T19:43:25.127Z,34.17
2023-04-17T19:46:29.232Z,31.20
2023-04-17T19:49:32.578Z,31.10
2023-04-17T19:52:38.268Z,32.38
2023-04-17T19:55:42.381Z,29.85
2023-04-17T19:58:45.750Z,34.17
2023-04-17T20:01:49.746Z,35.45
2023-04-17T20:04:53.292Z,44.95
2023-04-17T20:07:58.041Z,38.03
2023-04-17T20:11:01.484Z,34.50
2023-04-17T20:14:05.634Z,33.25
2023-04-17T20:17:09.140Z,37.63
2023-04-17T20:20:13.351Z,36.63
2023-04-17T20:23:18.053Z,37.25
2023-04-17T20:26:21.358Z,37.03
2023-04-17T20:29:24.887Z,38.03
2023-04-17T20:32:28.321Z,41.45
2023-04-17T20:35:31.644Z,41.35
2023-04-17T20:38:36.330Z,42.97
2023-04-17T20:41:39.723Z,44.65
2023-04-17T20:44:42.977Z,46.33
2023-04-17T20:47:56.667Z,47.85
2023-04-17T20:51:05.848Z,49.58
2023-04-17T20:54:10.651Z,50.75
2023-04-17T20:57:13.962Z,48.85
2023-04-17T21:00:17.640Z,51.13
2023-04-17T21:03:21.275Z,55.35
2023-04-17T21:06:24.552Z,53.55
2023-04-17T21:09:29.183Z,55.03
2023-04-17T21:12:32.976Z,56.13
2023-04-17T21:15:36.355Z,57.60
2023-04-17T21:18:40.147Z,59.88
2023-04-17T21:21:43.326Z,54.92
2023-04-17T21:24:47.917Z,56.40
2023-04-17T21:27:51.101Z,56.92
2023-04-17T21:30:54.595Z,62.85
2023-04-17T21:33:57.797Z,57.40
2023-04-17T21:37:03.530Z,61.78
2023-04-17T21:40:09.614Z,64.70
2023-04-17T21:43:12.886Z,60.88
2023-04-17T21:46:16.201Z,61.05
2023-04-17T21:49:19.816Z,60.25
2023-04-17T21:52:23.134Z,69.85
2023-04-17T21:55:28.168Z,64.03
2023-04-17T21:58:31.518Z,64.60
2023-04-17T22:01:34.856Z,60.88
2023-04-17T22:04:38.288Z,63.88
2023-04-17T22:07:51.690Z,59.58
2023-04-17T22:10:59.779Z,63.72
2023-04-17T22:14:03.156Z,59.45
2023-04-17T22:17:06.415Z,70.05
2023-04-17T22:20:10.960Z,65.25
2023-04-17T22:23:14.174Z,61.00
2023-04-17T22:26:18.756Z,68.25
2023-04-17T22:29:21.980Z,60.75
2023-04-17T22:32:25.176Z,68.60
2023-04-17T22:35:28.480Z,64.97
2023-04-17T22:38:31.670Z,66.97
2023-04-17T22:41:36.254Z,60.25
2023-04-17T22:44:39.507Z,55.22
2023-04-17T22:47:42.743Z,61.08
2023-04-17T22:50:46.596Z,63.70
2023-04-17T22:53:49.781Z,56.53
2023-04-17T22:56:54.296Z,59.60
2023-04-17T22:59:57.475Z,63.80
2023-04-17T23:07:00.031Z,56.78
2023-04-17T23:10:03.453Z,56.58
2023-04-17T23:13:09.388Z,56.70
2023-04-17T23:16:12.655Z,57.55
2023-04-17T23:19:16.048Z,54.33
2023-04-17T23:22:19.395Z,56.78
2023-04-17T23:25:22.691Z,52.40
2023-04-17T23:28:30.553Z,51.20
2023-04-17T23:31:33.908Z,53.88
2023-04-17T23:34:37.590Z,54.00
2023-04-17T23:37:40.888Z,46.03
2023-04-17T23:40:44.138Z,49.47
2023-04-17T23:43:48.659Z,47.65
2023-04-17T23:46:51.857Z,44.92
2023-04-17T23:49:55.087Z,48.10
2023-04-17T23:52:58.268Z,47.97
2023-04-17T23:56:02.014Z,42.22
2023-04-17T23:59:06.557Z,41.42
